Latest Weather Observations for Mornington Island Airport

IDQ60801

Issued at 6:02 am EST Friday 27 May 2016 (issued every 30 minutes, with the page automatically refreshed every 10 minutes)

About weather observations | Map of weather stations | Latest weather observations for QLD | Other Formats
Station Details ID: 029182 Name: MORNINGTON ISLAND AIRPORT Lat: -16.66 Lon: 139.17 Height: 9.0 m
Data from the previous 72 hours. | See also: Recent months at Mornington Island Airport
Date/Time
EST
Temp
°C
App
Temp
°C
Dew
Point
Rel
Hum
%
Delta-T
°C
Wind Press
QNH
hPa
Press
MSL
hPa
Rain
since 9 am
mm
Dir
 
Spd
km/h
Gust
km/h
Spd
kts
Gust
kts
27/06:00am 24.2 28.8 24.2 100 0.0 SW 7 9 4 5 1013.2 1013.1 0.2
27/05:30am 24.5 29.5 24.5 100 0.0 SSW 6 7 3 4 1013.3 1013.2 0.2
27/05:00am 24.1 28.9 24.1 100 0.0 NW 6 7 3 4 1013.2 1013.1 0.2
27/04:30am 23.7 28.2 23.7 100 0.0 NW 6 7 3 4 1013.1 1013.0 0.2
27/04:00am 22.9 27.7 22.9 100 0.0 NW 2 6 1 3 1013.1 1013.0 0.2
27/03:30am 23.0 27.1 23.0 100 0.0 NW 6 7 3 4 1013.2 1013.1 0.2
27/03:00am 23.1 28.4 23.1 100 0.0 CALM 0 0 0 0 1013.3 1013.2 0.2
27/02:30am 23.5 29.1 23.5 100 0.0 CALM 0 0 0 0 1013.3 1013.2 0.2
27/02:00am 23.3 28.7 23.3 100 0.0 CALM 0 0 0 0 1013.3 1013.2 0.2
27/01:30am 24.4 29.3 24.4 100 0.0 NW 6 7 3 4 1013.5 1013.4 0.2
27/01:00am 24.0 28.5 24.0 100 0.0 NW 7 9 4 5 1013.4 1013.3 0.2
27/12:30am 24.2 28.8 24.2 100 0.0 N 7 9 4 5 1013.3 1013.2 0.2
27/12:00am 23.3 27.6 23.3 100 0.0 N 6 7 3 4 1013.1 1013.0 0.2
 
Date/Time
EST
Temp
°C
App
Temp
°C
Dew
Point
Rel
Hum
%
Delta-T
°C
Wind Press
QNH
hPa
Press
MSL
hPa
Rain
since 9 am
mm
Dir
 
Spd
km/h
Gust
km/h
Spd
kts
Gust
kts
26/11:30pm 24.0 28.1 24.0 100 0.0 N 9 11 5 6 1013.3 1013.2 0.2
26/11:00pm 23.9 28.0 23.9 100 0.0 NNE 9 11 5 6 1013.4 1013.3 0.2
26/10:30pm 23.7 28.0 23.7 100 0.0 NE 7 9 4 5 1013.5 1013.4 0.2
26/10:00pm 24.0 28.7 24.0 100 0.0 NE 6 6 3 3 1013.5 1013.4 0.2
26/09:30pm 24.3 29.0 24.3 100 0.0 NE 7 7 4 4 1013.5 1013.4 0.2
26/09:00pm 24.5 28.9 24.5 100 0.0 NNE 9 11 5 6 1013.4 1013.3 0.2
26/08:30pm 24.6 29.5 24.6 100 0.0 NNE 7 11 4 6 1013.5 1013.4 0.2
26/08:00pm 25.0 29.7 25.0 100 0.0 NNE 9 11 5 6 1013.3 1013.2 0.2
26/07:30pm 25.2 30.1 25.2 100 0.0 NE 9 13 5 7 1012.8 1012.7 0.2
26/07:00pm 25.7 30.9 25.7 100 0.0 NNE 9 15 5 8 1012.5 1012.4 0.2
26/06:30pm 26.2 31.3 26.2 100 0.0 NE 11 13 6 7 1012.3 1012.2 0.2
26/06:00pm 27.4 33.4 27.4 100 0.0 NE 11 17 6 9 1012.4 1012.3 0.2
26/05:30pm 28.2 32.8 27.1 94 0.8 ENE 17 22 9 12 1012.2 1012.1 0.2
26/05:00pm 28.8 33.9 27.2 91 1.2 ENE 15 22 8 12 1012.3 1012.2 0.2
26/04:30pm 30.1 36.6 28.7 92 1.0 ENE 13 26 7 14 1012.0 1011.9 0.2
26/04:00pm 29.9 35.4 27.3 86 1.9 ENE 13 20 7 11 1012.0 1011.9 0.2
26/03:30pm 28.9 34.1 26.9 89 1.4 ENE 13 17 7 9 1012.1 1012.0 0.2
26/03:00pm 28.4 33.3 27.0 92 1.0 ESE 15 19 8 10 1012.3 1012.2 0.2
26/02:30pm 28.8 34.9 28.1 96 0.5 ESE 13 19 7 10 1012.5 1012.4 0.2
26/02:00pm 28.1 32.6 27.8 98 0.2 E 20 28 11 15 1013.0 1012.9 0.2
26/01:30pm 29.1 34.9 28.2 95 0.7 SE 15 20 8 11 1013.3 1013.2 0.2
26/01:00pm 28.0 34.0 28.0 100 0.0 SE 13 20 7 11 1013.7 1013.6 0.2
26/12:30pm 27.4 33.4 27.4 100 0.0 SSE 11 17 6 9 1014.3 1014.2 0.2
26/12:00pm 27.7 33.9 27.7 100 0.0 SSE 11 17 6 9 1014.6 1014.5 0.2
26/11:30am 27.5 33.2 27.5 100 0.0 SE 13 17 7 9 1014.9 1014.8 0.2
26/11:00am 28.2 34.4 28.2 100 0.0 SE 13 19 7 10 1015.1 1015.0 0.2
26/10:30am 27.4 32.6 27.4 100 0.0 SE 15 20 8 11 1015.2 1015.1 0.2
26/10:00am 28.3 34.5 28.3 100 0.0 E 13 19 7 10 1015.1 1015.0 0.2
26/09:30am 27.4 33.0 27.4 100 0.0 E 13 17 7 9 1015.0 1014.9 0.2
26/09:00am 26.5 31.5 26.5 100 0.0 E 13 17 7 9 1014.7 1014.6 49.0
26/08:30am 25.0 28.6 25.0 100 0.0 E 15 19 8 10 1014.4 1014.3 49.0
26/08:00am 24.3 27.9 24.3 100 0.0 ENE 13 15 7 8 1013.9 1013.8 49.0
26/07:30am 23.3 26.3 23.3 100 0.0 ENE 13 15 7 8 1013.7 1013.6 49.0
26/07:00am 23.2 26.5 23.2 100 0.0 ENE 11 13 6 7 1013.5 1013.4 49.0
26/06:30am 23.1 26.7 23.1 100 0.0 ENE 9 11 5 6 1013.2 1013.1 49.0
26/06:00am 23.3 26.7 23.3 100 0.0 ENE 11 13 6 7 1012.9 1012.8 49.0
26/05:30am 23.3 26.7 23.3 100 0.0 E 11 13 6 7 1012.8 1012.7 49.0
26/05:00am 23.5 27.0 23.5 100 0.0 E 11 13 6 7 1012.6 1012.5 49.0
26/04:30am 23.6 27.1 23.6 100 0.0 E 11 13 6 7 1012.6 1012.5 49.0
26/04:00am 23.4 27.6 23.4 100 0.0 E 7 9 4 5 1012.4 1012.3 49.0
26/03:30am 23.5 27.0 23.5 100 0.0 ESE 11 13 6 7 1012.5 1012.4 49.0
26/03:00am 23.7 27.3 23.7 100 0.0 E 11 13 6 7 1012.5 1012.4 49.0
26/02:30am 23.9 27.6 23.9 100 0.0 ESE 11 13 6 7 1012.6 1012.5 49.0
26/02:00am 24.2 28.1 24.2 100 0.0 SE 11 15 6 8 1012.9 1012.8 49.0
26/01:30am 24.2 27.7 24.2 100 0.0 SE 13 15 7 8 1013.3 1013.2 49.0
26/01:00am 23.8 27.4 23.8 100 0.0 ESE 11 15 6 8 1013.4 1013.3 49.0
26/12:30am 24.0 29.8 24.0 100 0.0 CALM 0 4 0 2 1013.2 1013.1 49.0
26/12:00am 24.0 27.8 24.0 100 0.0 NNE 11 20 6 11 1013.7 1013.6 49.0
 
Date/Time
EST
Temp
°C
App
Temp
°C
Dew
Point
Rel
Hum
%
Delta-T
°C
Wind Press
QNH
hPa
Press
MSL
hPa
Rain
since 9 am
mm
Dir
 
Spd
km/h
Gust
km/h
Spd
kts
Gust
kts
25/11:30pm 24.0 27.8 24.0 100 0.0 ENE 11 15 6 8 1013.7 1013.6 48.4
25/11:00pm 24.2 28.1 24.2 100 0.0 NNE 11 13 6 7 1013.8 1013.7 48.4
25/10:30pm 24.1 27.2 24.1 100 0.0 NNE 15 26 8 14 1013.8 1013.7 48.4
25/10:00pm 24.3 27.9 24.3 100 0.0 NE 13 20 7 11 1014.0 1013.9 48.2
25/09:30pm 24.1 27.5 24.1 100 0.0 N 13 26 7 14 1013.8 1013.7 48.2
25/09:00pm 24.7 29.3 24.7 100 0.0 ESE 9 13 5 7 1013.1 1013.0 47.4
25/08:30pm 24.7 29.8 24.7 100 0.0 SE 6 7 3 4 1013.1 1013.0 47.4
25/08:00pm 24.4 29.2 24.4 100 0.0 S 7 11 4 6 1012.6 1012.5 47.4
25/07:30pm 24.5 29.3 24.5 100 0.0 SSW 7 9 4 5 1012.5 1012.4 47.4
25/07:00pm 24.5 29.3 24.5 100 0.0 SSW 7 9 4 5 1012.1 1012.0 47.4
25/06:30pm 24.3 30.3 24.3 100 0.0 CALM 0 0 0 0 1012.2 1012.1 47.4
25/06:00pm 24.2 28.8 24.2 100 0.0 S 7 9 4 5 1011.8 1011.7 47.2
25/05:30pm 24.0 27.8 24.0 100 0.0 SSW 11 15 6 8 1011.6 1011.5 46.8
25/05:00pm 23.8 27.1 23.8 100 0.0 WSW 13 19 7 10 1011.6 1011.5 45.6
25/04:30pm 23.5 25.3 23.5 100 0.0 NW 20 28 11 15 1011.6 1011.5 40.8
25/04:00pm 24.9 29.2 24.9 100 0.0 SSE 11 15 6 8 1011.1 1011.0 26.0
25/03:30pm 24.7 28.5 24.7 100 0.0 SSE 13 19 7 10 1011.3 1011.2 26.0
25/03:00pm 24.6 28.3 24.6 100 0.0 SSE 13 20 7 11 1011.4 1011.3 24.6
25/02:30pm 24.8 29.0 24.8 100 0.0 NE 11 19 6 10 1011.7 1011.6 19.4
25/02:00pm 24.8 27.9 24.8 100 0.0 ENE 17 20 9 11 1012.1 1012.0 17.2
25/01:30pm 25.9 30.5 25.9 100 0.0 SSE 13 20 7 11 1012.3 1012.2 0.4
25/01:00pm 26.7 31.1 26.2 97 0.4 SSE 15 20 8 11 1012.6 1012.5 0.2
25/12:30pm 26.9 31.9 26.6 98 0.2 SE 13 20 7 11 1013.0 1012.9 0.2
25/12:00pm 26.4 29.8 26.2 99 0.1 ESE 20 30 11 16 1013.4 1013.3 0.2
25/11:30am 27.2 32.2 26.0 93 0.8 SE 11 15 6 8 1013.7 1013.6 0.0
25/11:00am 27.2 32.1 25.8 92 1.0 E 11 19 6 10 1013.9 1013.8 0.0
25/10:30am 26.1 31.6 26.1 100 0.0 ESE 9 11 5 6 1014.2 1014.1 0.0
25/10:00am 26.1 31.2 26.1 100 0.0 SE 11 15 6 8 1014.3 1014.2 0.0
25/09:30am 25.0 29.4 25.0 100 0.0 SE 11 15 6 8 1014.3 1014.2 0.0
25/09:00am 24.5 28.2 24.5 100 0.0 SE 13 17 7 9 1014.2 1014.1 13.6
25/08:30am 24.5 28.6 24.5 100 0.0 SE 11 17 6 9 1013.9 1013.8 13.6
25/08:00am 24.2 28.1 24.2 100 0.0 SE 11 17 6 9 1013.7 1013.6 13.6
25/07:30am 23.9 27.6 23.9 100 0.0 SE 11 15 6 8 1013.4 1013.3 13.6
25/07:00am 23.9 27.2 23.9 100 0.0 SE 13 19 7 10 1013.0 1012.9 13.6
25/06:30am 23.4 27.2 23.4 100 0.0 SSE 9 13 5 7 1013.0 1012.9 13.6
25/06:00am 23.2 26.9 23.2 100 0.0 SSE 9 15 5 8 1012.6 1012.5 13.6
25/05:30am 23.0 26.6 23.0 100 0.0 SSE 9 15 5 8 1012.2 1012.1 13.6
25/05:00am 22.7 26.5 22.7 100 0.0 SSE 7 9 4 5 1012.2 1012.1 13.6
25/04:30am 22.7 26.1 22.7 100 0.0 S 9 15 5 8 1012.4 1012.3 13.6
25/04:00am 23.2 26.9 23.2 100 0.0 S 9 13 5 7 1012.4 1012.3 13.6
25/03:30am 23.8 28.2 23.8 100 0.0 S 7 11 4 6 1012.9 1012.8 13.6
25/03:00am 23.8 28.2 23.8 100 0.0 S 7 9 4 5 1013.1 1013.0 13.6
25/02:30am 23.5 27.9 23.5 100 0.0 SSE 6 7 3 4 1013.2 1013.1 13.6
25/02:00am 23.5 27.7 23.5 100 0.0 SSE 7 11 4 6 1013.2 1013.1 13.6
25/01:30am 23.6 27.5 23.6 100 0.0 SE 9 15 5 8 1013.4 1013.3 13.6
25/01:00am 23.7 27.3 23.7 100 0.0 SE 11 17 6 9 1013.6 1013.5 13.6
25/12:30am 23.7 26.9 23.7 100 0.0 SE 13 17 7 9 1013.8 1013.7 13.6
25/12:00am 23.9 26.8 23.9 100 0.0 SE 15 20 8 11 1013.9 1013.8 13.6
 
Date/Time
EST
Temp
°C
App
Temp
°C
Dew
Point
Rel
Hum
%
Delta-T
°C
Wind Press
QNH
hPa
Press
MSL
hPa
Rain
since 9 am
mm
Dir
 
Spd
km/h
Gust
km/h
Spd
kts
Gust
kts
24/11:30pm 23.9 26.7 23.6 98 0.2 SE 15 20 8 11 1014.0 1013.9 13.6
24/11:00pm 23.9 26.3 23.6 98 0.2 SE 17 24 9 13 1014.0 1013.9 13.6
24/10:30pm 23.9 26.3 23.7 99 0.1 SE 17 24 9 13 1014.2 1014.1 13.6
24/10:00pm 23.8 27.1 23.8 100 0.0 SSE 13 19 7 10 1014.4 1014.3 13.6
24/09:30pm 23.8 27.1 23.8 100 0.0 SSE 13 22 7 12 1014.4 1014.3 13.6
24/09:00pm 23.6 26.0 23.6 100 0.0 SSE 17 26 9 14 1014.0 1013.9 13.6
24/08:30pm 23.5 26.6 23.5 100 0.0 SSE 13 19 7 10 1014.0 1013.9 13.6
24/08:00pm 23.4 26.4 23.4 100 0.0 SE 13 20 7 11 1013.6 1013.5 13.6
24/07:30pm 23.2 26.5 23.2 100 0.0 SSE 11 20 6 11 1013.1 1013.0 13.6
24/07:00pm 23.2 25.7 23.2 100 0.0 SSE 15 24 8 13 1013.5 1013.4 13.6
24/06:30pm 23.1 26.3 23.1 100 0.0 SSE 11 17 6 9 1013.3 1013.2 13.6
24/06:00pm 22.9 25.3 22.9 100 0.0 SSE 15 24 8 13 1013.1 1013.0 13.6
24/05:30pm 23.1 26.0 23.1 100 0.0 SSE 13 24 7 13 1013.0 1012.9 13.4
24/05:00pm 22.9 24.9 22.9 100 0.0 SSE 17 26 9 14 1012.8 1012.7 13.4
24/04:30pm 22.9 24.9 22.9 100 0.0 S 17 24 9 13 1012.6 1012.5 13.4
24/04:00pm 22.9 25.3 22.9 100 0.0 S 15 22 8 12 1012.8 1012.7 13.4
24/03:30pm 22.9 25.3 22.9 100 0.0 SSE 15 20 8 11 1012.8 1012.7 11.2
24/03:00pm 23.1 26.0 23.1 100 0.0 SSE 13 24 7 13 1012.9 1012.8 8.8
24/02:30pm 23.4 26.1 23.4 100 0.0 SE 15 24 8 13 1012.8 1012.7 7.0
24/02:00pm 23.4 26.1 23.4 100 0.0 SE 15 28 8 15 1013.1 1013.0 5.4
24/01:30pm 23.3 25.5 23.3 100 0.0 SE 17 28 9 15 1013.4 1013.3 4.6
24/01:00pm 23.6 26.0 23.6 100 0.0 SE 17 26 9 14 1014.0 1013.9 4.6
24/12:30pm 23.5 25.3 23.5 100 0.0 SE 20 30 11 16 1014.2 1014.1 3.8
24/12:00pm 23.4 25.1 23.4 100 0.0 SE 20 32 11 17 1014.7 1014.6 3.0
24/11:30am 23.4 25.1 23.4 100 0.0 SE 20 30 11 16 1014.5 1014.4 2.8
24/11:00am 23.4 25.3 23.4 100 0.0 SE 19 30 10 16 1015.3 1015.2 1.8
24/10:30am 23.5 24.9 23.5 100 0.0 ESE 22 30 12 16 1015.2 1015.1 0.8
24/10:00am 23.7 25.8 23.7 100 0.0 ESE 19 24 10 13 1014.9 1014.8 0.6
24/09:30am 23.8 25.7 23.8 100 0.0 SE 20 32 11 17 1014.8 1014.7 0.2
24/09:00am 23.6 24.7 23.6 100 0.0 SE 24 33 13 18 1014.1 1014.0 17.4
24/08:30am 23.6 25.0 23.6 100 0.0 SE 22 33 12 18 1014.0 1013.9 17.2
24/08:00am 23.3 25.1 23.3 100 0.0 SE 19 28 10 15 1014.1 1014.0 16.6
24/07:30am 22.8 24.2 22.8 100 0.0 SE 20 32 11 17 1013.6 1013.5 16.2
24/07:00am 22.8 23.4 22.8 100 0.0 SE 24 35 13 19 1013.2 1013.1 14.4
24/06:30am 22.7 23.2 22.7 100 0.0 SE 24 35 13 19 1013.1 1013.0 13.8

Other Formats:

Comma delimited format used in spreadsheet applications
http://www.bom.gov.au/fwo/IDQ60801/IDQ60801.94254.axf

JavaScript Object Notation format (JSON) in row-major order
http://www.bom.gov.au/fwo/IDQ60801/IDQ60801.94254.json